Time,TemperatureF,DewpointF,PressureIn,WindDirection,WindDirectionDegrees,WindSpeedMPH,WindSpeedGustMPH,Humidity,HourlyPrecipIn,Conditions,Clouds,dailyrainin,SoftwareType,DateUTC
2013-07-17 00:12:00,76.3,70.4,30.07,ENE,67,0.0,-999.0,82,-99.99,,,0.00,Acu-Link.com,2013-07-17 04:12:00,
2013-07-17 00:27:00,75.9,70.7,30.08,ENE,67,0.0,-999.0,84,-99.99,,,0.00,Acu-Link.com,2013-07-17 04:27:00,
2013-07-17 00:42:00,75.6,70.8,30.08,ENE,67,0.0,-999.0,85,-99.99,,,0.00,Acu-Link.com,2013-07-17 04:42:00,
2013-07-17 00:57:00,75.2,71.1,30.08,NE,45,0.0,-999.0,87,-99.99,,,0.00,Acu-Link.com,2013-07-17 04:57:00,
2013-07-17 01:13:00,75.2,70.7,30.08,NE,45,0.0,-999.0,86,-99.99,,,0.00,Acu-Link.com,2013-07-17 05:13:00,
2013-07-17 01:28:00,75.0,70.9,30.08,NE,45,0.0,-999.0,87,-99.99,,,0.00,Acu-Link.com,2013-07-17 05:28:00,
2013-07-17 01:43:00,74.8,71.0,30.08,NE,45,0.0,-999.0,88,-99.99,,,0.00,Acu-Link.com,2013-07-17 05:43:00,
2013-07-17 01:59:00,74.5,70.7,30.07,NE,45,0.0,-999.0,88,-99.99,,,0.00,Acu-Link.com,2013-07-17 05:59:00,
2013-07-17 02:14:00,74.1,70.6,30.07,NE,45,0.0,-999.0,89,-99.99,,,0.00,Acu-Link.com,2013-07-17 06:14:00,
2013-07-17 02:29:00,73.9,71.1,30.07,NE,45,0.0,-999.0,91,-99.99,,,0.00,Acu-Link.com,2013-07-17 06:29:00,
2013-07-17 02:44:00,73.6,70.8,30.06,NE,45,0.0,-999.0,91,-99.99,,,0.00,Acu-Link.com,2013-07-17 06:44:00,
2013-07-17 02:59:00,73.4,70.6,30.06,NE,45,0.0,-999.0,91,-99.99,,,0.00,Acu-Link.com,2013-07-17 06:59:00,
2013-07-17 03:15:00,73.4,70.9,30.06,NE,45,0.0,-999.0,92,-99.99,,,0.00,Acu-Link.com,2013-07-17 07:15:00,
2013-07-17 03:30:00,73.0,70.5,30.06,NNE,22,0.0,-999.0,92,-99.99,,,0.00,Acu-Link.com,2013-07-17 07:30:00,
2013-07-17 03:45:00,72.7,70.6,30.07,NE,45,0.0,-999.0,93,-99.99,,,0.00,Acu-Link.com,2013-07-17 07:45:00,
2013-07-17 04:01:00,72.5,70.4,30.07,NNE,22,0.0,-999.0,93,-99.99,,,0.00,Acu-Link.com,2013-07-17 08:01:00,
2013-07-17 04:16:00,72.3,70.2,30.07,NNE,22,0.0,-999.0,93,-99.99,,,0.00,Acu-Link.com,2013-07-17 08:16:00,
2013-07-17 04:31:00,72.3,70.2,30.07,NNE,22,0.0,-999.0,93,-99.99,,,0.00,Acu-Link.com,2013-07-17 08:31:00,
2013-07-17 04:46:00,72.7,70.9,30.07,NE,45,0.0,-999.0,94,-99.99,,,0.00,Acu-Link.com,2013-07-17 08:46:00,
2013-07-17 05:01:00,72.7,70.9,30.07,NE,45,0.0,-999.0,94,-99.99,,,0.00,Acu-Link.com,2013-07-17 09:01:00,
2013-07-17 05:16:00,72.9,71.1,30.08,NE,45,0.0,-999.0,94,-99.99,,,0.00,Acu-Link.com,2013-07-17 09:16:00,
2013-07-17 05:31:00,72.9,70.8,30.08,NE,45,0.0,-999.0,93,-99.99,,,0.00,Acu-Link.com,2013-07-17 09:31:00,
2013-07-17 05:47:00,73.2,71.0,30.09,NE,45,0.0,-999.0,93,-99.99,,,0.00,Acu-Link.com,2013-07-17 09:47:00,
2013-07-17 06:02:00,73.2,71.4,30.09,NNE,22,0.0,-999.0,94,-99.99,,,0.00,Acu-Link.com,2013-07-17 10:02:00,
2013-07-17 06:17:00,73.6,71.1,30.09,NNE,22,0.0,-999.0,92,-99.99,,,0.00,Acu-Link.com,2013-07-17 10:17:00,
2013-07-17 06:33:00,73.8,71.3,30.09,North,0,0.0,-999.0,92,-99.99,,,0.00,Acu-Link.com,2013-07-17 10:33:00,
2013-07-17 06:48:00,74.1,71.3,30.09,NNE,22,0.0,-999.0,91,-99.99,,,0.00,Acu-Link.com,2013-07-17 10:48:00,
2013-07-17 07:03:00,74.8,71.7,30.10,North,0,0.0,-999.0,90,-99.99,,,0.00,Acu-Link.com,2013-07-17 11:03:00,
2013-07-17 07:19:00,75.6,72.1,30.10,NNE,22,0.0,-999.0,89,-99.99,,,0.00,Acu-Link.com,2013-07-17 11:19:00,
2013-07-17 07:34:00,77.9,73.4,30.09,NNW,337,0.0,-999.0,86,-99.99,,,0.00,Acu-Link.com,2013-07-17 11:34:00,
2013-07-17 07:49:00,78.8,73.2,30.10,NNE,22,0.0,-999.0,83,-99.99,,,0.00,Acu-Link.com,2013-07-17 11:49:00,
2013-07-17 08:04:00,79.0,73.7,30.10,ESE,112,0.0,-999.0,84,-99.99,,,0.00,Acu-Link.com,2013-07-17 12:04:00,
2013-07-17 08:20:00,79.9,73.9,30.11,NE,45,0.0,-999.0,82,-99.99,,,0.00,Acu-Link.com,2013-07-17 12:20:00,
2013-07-17 08:35:00,80.4,73.3,30.10,East,90,0.0,-999.0,79,-99.99,,,0.00,Acu-Link.com,2013-07-17 12:35:00,
2013-07-17 08:50:00,81.1,73.6,30.10,SSE,157,0.0,-999.0,78,-99.99,,,0.00,Acu-Link.com,2013-07-17 12:50:00,
2013-07-17 09:05:00,82.0,74.4,30.11,ESE,112,0.0,-999.0,78,-99.99,,,0.00,Acu-Link.com,2013-07-17 13:05:00,
2013-07-17 09:20:00,82.8,74.8,30.11,ENE,67,0.0,-999.0,77,-99.99,,,0.00,Acu-Link.com,2013-07-17 13:20:00,
2013-07-17 09:36:00,83.7,74.5,30.11,NNE,22,0.0,-999.0,74,-99.99,,,0.00,Acu-Link.com,2013-07-17 13:36:00,
2013-07-17 09:51:00,84.2,74.6,30.11,NNE,22,1.7,-999.0,73,-99.99,,,0.00,Acu-Link.com,2013-07-17 13:51:00,
2013-07-17 10:06:00,85.5,75.0,30.11,NE,45,1.1,-999.0,71,-99.99,,,0.00,Acu-Link.com,2013-07-17 14:06:00,
2013-07-17 10:21:00,85.5,75.4,30.11,North,0,4.2,-999.0,72,-99.99,,,0.00,Acu-Link.com,2013-07-17 14:21:00,
2013-07-17 10:36:00,85.6,74.7,30.10,NNE,22,4.2,-999.0,70,-99.99,,,0.00,Acu-Link.com,2013-07-17 14:36:00,
2013-07-17 10:51:00,86.4,74.6,30.11,East,90,2.7,-999.0,68,-99.99,,,0.00,Acu-Link.com,2013-07-17 14:51:00,
2013-07-17 11:07:00,86.5,74.2,30.10,NE,45,3.2,-999.0,67,-99.99,,,0.00,Acu-Link.com,2013-07-17 15:07:00,
2013-07-17 11:22:00,87.4,75.1,30.10,NE,45,3.2,-999.0,67,-99.99,,,0.00,Acu-Link.com,2013-07-17 15:22:00,
2013-07-17 11:37:00,87.4,75.1,30.10,ENE,67,2.2,-999.0,67,-99.99,,,0.00,Acu-Link.com,2013-07-17 15:37:00,
2013-07-17 11:52:00,88.2,75.4,30.10,East,90,3.7,-999.0,66,-99.99,,,0.00,Acu-Link.com,2013-07-17 15:52:00,
2013-07-17 12:07:00,87.4,74.6,30.10,NE,45,2.7,-999.0,66,-99.99,,,0.00,Acu-Link.com,2013-07-17 16:07:00,
2013-07-17 12:23:00,89.1,75.3,30.09,East,90,4.7,-999.0,64,-99.99,,,0.00,Acu-Link.com,2013-07-17 16:23:00,
2013-07-17 12:38:00,87.8,75.0,30.10,ESE,112,4.2,-999.0,66,-99.99,,,0.00,Acu-Link.com,2013-07-17 16:38:00,
2013-07-17 12:53:00,88.5,74.3,30.10,SSE,157,2.2,-999.0,63,-99.99,,,0.00,Acu-Link.com,2013-07-17 16:53:00,
2013-07-17 13:09:00,88.3,74.5,30.09,SSE,157,2.2,-999.0,64,-99.99,,,0.00,Acu-Link.com,2013-07-17 17:09:00,
2013-07-17 13:24:00,88.5,74.7,30.08,ESE,112,4.7,-999.0,64,-99.99,,,0.00,Acu-Link.com,2013-07-17 17:24:00,
2013-07-17 13:39:00,90.1,76.7,30.08,NNE,22,2.7,-999.0,65,-99.99,,,0.00,Acu-Link.com,2013-07-17 17:39:00,
2013-07-17 13:55:00,90.0,75.2,30.07,ENE,67,3.7,-999.0,62,-99.99,,,0.00,Acu-Link.com,2013-07-17 17:55:00,
2013-07-17 14:10:00,89.4,74.1,30.06,NE,45,3.2,-999.0,61,-99.99,,,0.00,Acu-Link.com,2013-07-17 18:10:00,
2013-07-17 14:25:00,90.3,75.5,30.06,East,90,4.2,-999.0,62,-99.99,,,0.00,Acu-Link.com,2013-07-17 18:25:00,
2013-07-17 14:40:00,90.3,74.5,30.05,SW,225,1.1,-999.0,60,-99.99,,,0.00,Acu-Link.com,2013-07-17 18:40:00,
2013-07-17 14:56:00,91.8,76.4,30.05,NE,45,2.7,-999.0,61,-99.99,,,0.00,Acu-Link.com,2013-07-17 18:56:00,
2013-07-17 15:11:00,90.9,75.1,30.04,ENE,67,2.2,-999.0,60,-99.99,,,0.00,Acu-Link.com,2013-07-17 19:11:00,
2013-07-17 15:26:00,90.3,75.5,30.04,East,90,2.7,-999.0,62,-99.99,,,0.00,Acu-Link.com,2013-07-17 19:26:00,
2013-07-17 15:42:00,89.8,75.0,30.04,NE,45,3.7,-999.0,62,-99.99,,,0.00,Acu-Link.com,2013-07-17 19:42:00,
2013-07-17 15:57:00,89.8,76.4,30.02,ESE,112,2.2,-999.0,65,-99.99,,,0.00,Acu-Link.com,2013-07-17 19:57:00,
2013-07-17 16:12:00,89.6,74.8,30.02,SSE,157,0.0,-999.0,62,-99.99,,,0.00,Acu-Link.com,2013-07-17 20:12:00,
2013-07-17 16:28:00,88.9,75.6,30.00,NE,45,3.2,-999.0,65,-99.99,,,0.00,Acu-Link.com,2013-07-17 20:28:00,
2013-07-17 16:43:00,89.4,76.1,29.99,NE,45,5.3,-999.0,65,-99.99,,,0.00,Acu-Link.com,2013-07-17 20:43:00,
2013-07-17 16:58:00,88.9,75.6,30.00,East,90,2.7,-999.0,65,-99.99,,,0.00,Acu-Link.com,2013-07-17 20:58:00,
2013-07-17 17:14:00,88.2,75.8,30.00,East,90,3.2,-999.0,67,-99.99,,,0.00,Acu-Link.com,2013-07-17 21:14:00,
2013-07-17 17:29:00,87.8,75.9,30.00,NE,45,2.7,-999.0,68,-99.99,,,0.00,Acu-Link.com,2013-07-17 21:29:00,
2013-07-17 17:44:00,88.0,75.6,29.99,ENE,67,2.2,-999.0,67,-99.99,,,0.00,Acu-Link.com,2013-07-17 21:44:00,
2013-07-17 17:59:00,88.0,75.6,29.99,NE,45,2.7,-999.0,67,-99.99,,,0.00,Acu-Link.com,2013-07-17 21:59:00,
2013-07-17 18:15:00,87.6,75.7,30.00,NE,45,1.7,-999.0,68,-99.99,,,0.00,Acu-Link.com,2013-07-17 22:15:00,
2013-07-17 18:30:00,87.4,76.8,29.99,WNW,292,0.0,-999.0,71,-99.99,,,0.00,Acu-Link.com,2013-07-17 22:30:00,
2013-07-17 18:45:00,86.5,76.8,30.00,South,180,1.7,-999.0,73,-99.99,,,0.00,Acu-Link.com,2013-07-17 22:45:00,
2013-07-17 19:00:00,85.8,77.3,30.00,South,180,2.2,-999.0,76,-99.99,,,0.00,Acu-Link.com,2013-07-17 23:00:00,
2013-07-17 19:16:00,85.5,77.8,29.99,East,90,1.1,-999.0,78,-99.99,,,0.00,Acu-Link.com,2013-07-17 23:16:00,
2013-07-17 19:31:00,85.1,77.8,30.00,NE,45,0.0,-999.0,79,-99.99,,,0.00,Acu-Link.com,2013-07-17 23:31:00,
2013-07-17 19:46:00,83.7,76.1,29.99,NE,45,3.2,-999.0,78,-99.99,,,0.00,Acu-Link.com,2013-07-17 23:46:00,
2013-07-17 20:02:00,82.9,74.5,30.00,ESE,112,2.2,-999.0,76,-99.99,,,0.00,Acu-Link.com,2013-07-18 00:02:00,
2013-07-17 20:17:00,82.9,72.9,30.00,ENE,67,1.7,-999.0,72,-99.99,,,0.00,Acu-Link.com,2013-07-18 00:17:00,
2013-07-17 20:32:00,81.5,71.6,30.01,WNW,292,3.7,-999.0,72,-99.99,,,0.00,Acu-Link.com,2013-07-18 00:32:00,
2013-07-17 20:48:00,80.4,69.7,30.00,West,270,1.1,-999.0,70,-99.99,,,0.00,Acu-Link.com,2013-07-18 00:48:00,
2013-07-17 21:03:00,80.1,69.4,30.01,West,270,0.0,-999.0,70,-99.99,,,0.00,Acu-Link.com,2013-07-18 01:03:00,
2013-07-17 21:18:00,79.5,69.3,30.02,ESE,112,0.0,-999.0,71,-99.99,,,0.00,Acu-Link.com,2013-07-18 01:18:00,
2013-07-17 21:34:00,78.8,69.4,30.02,NW,315,0.0,-999.0,73,-99.99,,,0.00,Acu-Link.com,2013-07-18 01:34:00,
2013-07-17 21:49:00,78.4,69.8,30.01,East,90,0.0,-999.0,75,-99.99,,,0.00,Acu-Link.com,2013-07-18 01:49:00,
2013-07-17 22:04:00,78.1,69.5,30.02,SSW,202,0.0,-999.0,75,-99.99,,,0.00,Acu-Link.com,2013-07-18 02:04:00,
2013-07-17 22:20:00,78.1,69.5,30.02,SSW,202,0.0,-999.0,75,-99.99,,,0.00,Acu-Link.com,2013-07-18 02:20:00,
2013-07-17 22:35:00,77.7,69.1,30.02,SW,225,0.0,-999.0,75,-99.99,,,0.00,Acu-Link.com,2013-07-18 02:35:00,
2013-07-17 22:50:00,77.4,69.2,30.02,SW,225,0.0,-999.0,76,-99.99,,,0.00,Acu-Link.com,2013-07-18 02:50:00,
2013-07-17 23:05:00,77.2,69.4,30.01,SW,225,0.0,-999.0,77,-99.99,,,0.00,Acu-Link.com,2013-07-18 03:05:00,
2013-07-17 23:20:00,76.8,70.1,30.01,SW,225,0.0,-999.0,80,-99.99,,,0.00,Acu-Link.com,2013-07-18 03:20:00,
2013-07-17 23:36:00,76.6,70.3,30.01,ENE,67,0.0,-999.0,81,-99.99,,,0.00,Acu-Link.com,2013-07-18 03:36:00,
2013-07-17 23:51:00,76.3,70.4,30.01,ENE,67,0.0,-999.0,82,-99.99,,,0.00,Acu-Link.com,2013-07-18 03:51:00,